createdAt,value
2023-03-27T00:02:26.312Z,21.93
2023-03-27T00:04:54.422Z,20.64
2023-03-27T00:07:21.880Z,18.88
2023-03-27T00:09:48.703Z,18.57
2023-03-27T00:12:15.819Z,19.24
2023-03-27T00:14:42.571Z,19.76
2023-03-27T00:17:09.375Z,20.49
2023-03-27T00:19:36.338Z,20.81
2023-03-27T00:22:03.673Z,20.95
2023-03-27T00:24:30.556Z,21.12
2023-03-27T00:26:58.145Z,21.19
2023-03-27T00:29:24.969Z,21.31
2023-03-27T00:31:52.000Z,21.41
2023-03-27T00:34:18.761Z,21.53
2023-03-27T00:36:50.915Z,21.55
2023-03-27T00:39:19.096Z,21.65
2023-03-27T00:41:46.014Z,21.67
2023-03-27T00:44:13.799Z,21.83
2023-03-27T00:46:40.669Z,21.81
2023-03-27T00:49:08.109Z,21.95
2023-03-27T00:51:34.956Z,22.07
2023-03-27T00:54:01.821Z,22.08
2023-03-27T00:56:28.598Z,20.19
2023-03-27T00:58:55.480Z,18.99
2023-03-27T01:01:22.268Z,18.93
2023-03-27T01:03:49.284Z,19.65
2023-03-27T01:06:16.798Z,20.31
2023-03-27T01:08:43.631Z,20.97
2023-03-27T01:11:10.618Z,20.97
2023-03-27T01:13:37.380Z,21.09
2023-03-27T01:16:04.326Z,21.24
2023-03-27T01:18:31.088Z,21.30
2023-03-27T01:20:58.487Z,21.44
2023-03-27T01:23:35.855Z,21.48
2023-03-27T01:26:13.466Z,21.58
2023-03-27T01:28:41.008Z,21.77
2023-03-27T01:31:07.781Z,21.72
2023-03-27T01:33:34.550Z,21.80
2023-03-27T01:36:01.591Z,21.91
2023-03-27T01:38:28.556Z,22.01
2023-03-27T01:40:55.570Z,21.98
2023-03-27T01:43:22.499Z,20.79
2023-03-27T01:45:49.243Z,19.34
2023-03-27T01:48:16.797Z,18.55
2023-03-27T01:50:43.588Z,19.52
2023-03-27T01:53:10.516Z,20.02
2023-03-27T01:55:37.256Z,20.67
2023-03-27T01:58:04.953Z,20.79
2023-03-27T02:00:51.958Z,21.06
2023-03-27T02:03:19.070Z,21.21
2023-03-27T02:05:46.015Z,21.27
2023-03-27T02:08:13.415Z,21.53
2023-03-27T02:10:40.731Z,21.58
2023-03-27T02:13:07.475Z,21.73
2023-03-27T02:15:34.220Z,21.67
2023-03-27T02:18:07.992Z,21.75
2023-03-27T02:20:34.762Z,21.77
2023-03-27T02:23:01.833Z,21.85
2023-03-27T02:25:28.710Z,21.89
2023-03-27T02:27:55.523Z,21.98
2023-03-27T02:30:22.326Z,21.54
2023-03-27T02:32:49.175Z,19.67
2023-03-27T02:35:17.455Z,18.86
2023-03-27T02:37:44.220Z,19.61
2023-03-27T02:40:12.077Z,19.51
2023-03-27T02:42:38.819Z,19.38
2023-03-27T02:45:05.600Z,19.80
2023-03-27T02:47:32.461Z,20.47
2023-03-27T02:49:59.342Z,20.72
2023-03-27T02:52:26.539Z,20.94
2023-03-27T02:54:53.302Z,21.04
2023-03-27T02:57:20.359Z,21.15
2023-03-27T02:59:47.122Z,21.28
2023-03-27T03:02:13.941Z,21.41
2023-03-27T03:04:41.800Z,21.55
2023-03-27T03:07:08.650Z,21.56
2023-03-27T03:09:40.377Z,21.64
2023-03-27T03:12:07.603Z,21.85
2023-03-27T03:14:34.389Z,21.74
2023-03-27T03:17:01.322Z,21.86
2023-03-27T03:19:28.096Z,21.82
2023-03-27T03:21:55.499Z,22.03
2023-03-27T03:24:22.355Z,22.09
2023-03-27T03:26:52.258Z,20.34
2023-03-27T03:29:19.151Z,19.18
2023-03-27T03:31:46.000Z,19.12
2023-03-27T03:34:12.808Z,19.09
2023-03-27T03:36:41.789Z,19.04
2023-03-27T03:39:08.590Z,19.48
2023-03-27T03:41:35.829Z,20.28
2023-03-27T03:44:02.594Z,20.58
2023-03-27T03:46:29.455Z,20.72
2023-03-27T03:48:58.961Z,20.97
2023-03-27T03:51:26.109Z,21.13
2023-03-27T03:53:52.926Z,21.26
2023-03-27T03:56:19.693Z,21.41
2023-03-27T03:58:46.441Z,21.44
2023-03-27T04:01:13.525Z,21.51
2023-03-27T04:03:41.374Z,21.49
2023-03-27T04:06:08.212Z,21.64
2023-03-27T04:08:35.011Z,21.61
2023-03-27T04:11:01.878Z,21.78
2023-03-27T04:13:28.634Z,21.83
2023-03-27T04:15:55.554Z,21.85
2023-03-27T04:18:24.511Z,21.92
2023-03-27T04:20:54.264Z,21.90
2023-03-27T04:23:21.221Z,21.36
2023-03-27T04:25:48.015Z,19.92
2023-03-27T04:28:16.577Z,18.99
2023-03-27T04:30:44.033Z,19.62
2023-03-27T04:33:18.114Z,19.68
2023-03-27T04:35:45.196Z,19.47
2023-03-27T04:38:12.432Z,19.46
2023-03-27T04:40:39.220Z,19.26
2023-03-27T04:43:05.982Z,19.36
2023-03-27T04:45:33.578Z,19.07
2023-03-27T04:48:00.364Z,18.96
2023-03-27T04:50:27.220Z,18.96
2023-03-27T04:52:58.515Z,18.69
2023-03-27T04:55:26.474Z,18.68
2023-03-27T04:57:53.226Z,19.62
2023-03-27T05:00:20.012Z,19.93
2023-03-27T05:02:47.526Z,20.27
2023-03-27T05:05:14.472Z,20.28
2023-03-27T05:07:41.218Z,20.53
2023-03-27T05:10:08.034Z,20.62
2023-03-27T05:12:34.821Z,20.71
2023-03-27T05:15:05.915Z,20.90
2023-03-27T05:17:32.847Z,21.03
2023-03-27T05:19:59.703Z,21.12
2023-03-27T05:22:26.474Z,21.25
2023-03-27T05:24:53.249Z,21.22
2023-03-27T05:27:20.140Z,21.27
2023-03-27T05:29:47.779Z,21.34
2023-03-27T05:32:14.642Z,21.42
2023-03-27T05:34:42.256Z,21.44
2023-03-27T05:37:09.036Z,21.51
2023-03-27T05:39:36.576Z,21.56
2023-03-27T05:42:03.405Z,21.66
2023-03-27T05:44:30.161Z,21.75
2023-03-27T05:46:57.144Z,21.84
2023-03-27T05:49:24.054Z,21.80
2023-03-27T05:51:50.804Z,21.92
2023-03-27T05:54:17.553Z,21.90
2023-03-27T05:56:44.380Z,21.87
2023-03-27T05:59:11.694Z,21.91
2023-03-27T06:01:39.730Z,20.18
2023-03-27T06:04:09.062Z,19.03
2023-03-27T06:06:36.157Z,19.47
2023-03-27T06:09:03.672Z,19.61
2023-03-27T06:11:30.727Z,19.60
2023-03-27T06:13:58.746Z,19.51
2023-03-27T06:16:25.755Z,20.32
2023-03-27T06:18:53.004Z,20.55
2023-03-27T06:21:19.849Z,20.83
2023-03-27T06:23:47.624Z,20.97
2023-03-27T06:26:15.378Z,21.17
2023-03-27T06:28:42.432Z,21.23
2023-03-27T06:31:09.318Z,21.28
2023-03-27T06:33:36.134Z,21.39
2023-03-27T06:36:03.027Z,21.59
2023-03-27T06:38:31.924Z,21.66
2023-03-27T06:40:59.716Z,21.67
2023-03-27T06:43:26.493Z,21.64
2023-03-27T06:45:53.241Z,21.80
2023-03-27T06:48:22.095Z,21.78
2023-03-27T06:50:49.230Z,21.84
2023-03-27T06:53:26.737Z,21.85
2023-03-27T06:55:54.608Z,21.86
2023-03-27T06:58:21.649Z,19.98
2023-03-27T07:00:49.667Z,19.10
2023-03-27T07:03:17.610Z,19.53
2023-03-27T07:05:44.503Z,19.12
2023-03-27T07:08:21.716Z,19.14
2023-03-27T07:10:59.974Z,19.02
2023-03-27T07:13:34.601Z,18.78
2023-03-27T07:16:01.449Z,18.62
2023-03-27T07:18:28.258Z,18.90
2023-03-27T07:20:55.413Z,19.55
2023-03-27T07:23:22.432Z,20.26
2023-03-27T07:25:50.033Z,20.43
2023-03-27T07:28:18.225Z,20.54
2023-03-27T07:30:45.059Z,20.71
2023-03-27T07:33:12.509Z,20.97
2023-03-27T07:35:39.592Z,21.02
2023-03-27T07:38:06.564Z,21.06
2023-03-27T07:40:39.865Z,21.17
2023-03-27T07:43:07.203Z,21.25
2023-03-27T07:45:34.053Z,21.34
2023-03-27T07:48:01.797Z,21.45
2023-03-27T07:50:28.673Z,21.47
2023-03-27T07:52:55.436Z,21.61
2023-03-27T07:55:22.943Z,21.68
2023-03-27T07:58:00.544Z,21.64
2023-03-27T08:00:29.506Z,21.74
2023-03-27T08:02:56.381Z,21.77
2023-03-27T08:05:23.194Z,21.87
2023-03-27T08:07:50.722Z,21.97
2023-03-27T08:10:17.542Z,21.94
2023-03-27T08:12:44.342Z,21.02
2023-03-27T08:15:11.100Z,19.51
2023-03-27T08:17:38.014Z,18.70
2023-03-27T08:20:08.957Z,19.39
2023-03-27T08:22:36.821Z,19.40
2023-03-27T08:25:04.632Z,19.69
2023-03-27T08:27:32.049Z,19.51
2023-03-27T08:29:58.818Z,19.91
2023-03-27T08:32:25.679Z,20.43
2023-03-27T08:34:52.529Z,20.74
2023-03-27T08:37:19.345Z,20.91
2023-03-27T08:39:46.746Z,21.11
2023-03-27T08:42:13.768Z,21.12
2023-03-27T08:44:40.710Z,21.22
2023-03-27T08:47:07.500Z,21.35
2023-03-27T08:49:34.259Z,21.54
2023-03-27T08:52:01.082Z,21.58
2023-03-27T08:54:28.040Z,21.66
2023-03-27T08:56:54.851Z,21.75
2023-03-27T08:59:21.610Z,21.76
2023-03-27T09:01:48.457Z,21.84
2023-03-27T09:04:15.248Z,21.87
2023-03-27T09:06:42.332Z,21.82
2023-03-27T09:09:09.087Z,21.90
2023-03-27T09:11:36.998Z,20.56
2023-03-27T09:14:03.957Z,19.18
2023-03-27T09:16:30.781Z,18.87
2023-03-27T09:18:57.658Z,19.49
2023-03-27T09:21:24.427Z,19.15
2023-03-27T09:23:53.945Z,19.19
2023-03-27T09:26:20.772Z,19.05
2023-03-27T09:28:53.589Z,18.95
2023-03-27T09:31:20.464Z,18.79
2023-03-27T09:33:47.675Z,19.12
2023-03-27T09:36:14.431Z,19.79
2023-03-27T09:38:42.047Z,20.10
2023-03-27T09:41:08.844Z,20.36
2023-03-27T09:43:35.585Z,20.56
2023-03-27T09:46:02.401Z,20.62
2023-03-27T09:48:29.254Z,20.86
2023-03-27T09:50:56.592Z,20.94
2023-03-27T09:53:25.069Z,21.16
2023-03-27T09:55:52.763Z,21.20
2023-03-27T09:58:20.440Z,21.24
2023-03-27T10:00:48.016Z,21.31
2023-03-27T10:03:14.953Z,21.36
2023-03-27T10:05:43.705Z,21.49
2023-03-27T10:08:10.472Z,21.45
2023-03-27T10:10:42.308Z,21.63
2023-03-27T10:13:09.063Z,21.64
2023-03-27T10:15:36.272Z,21.67
2023-03-27T10:18:04.438Z,21.85
2023-03-27T10:20:31.291Z,21.85
2023-03-27T10:22:58.062Z,21.90
2023-03-27T10:25:24.814Z,22.14
2023-03-27T10:27:51.663Z,21.93
2023-03-27T10:30:18.491Z,21.42
2023-03-27T10:32:45.335Z,19.46
2023-03-27T10:35:14.438Z,18.58
2023-03-27T10:37:41.376Z,19.36
2023-03-27T10:40:17.115Z,19.40
2023-03-27T10:42:44.176Z,20.12
2023-03-27T10:45:10.952Z,20.55
2023-03-27T10:47:37.706Z,20.85
2023-03-27T10:50:04.656Z,20.91
2023-03-27T10:52:31.547Z,21.08
2023-03-27T10:54:58.295Z,21.28
2023-03-27T10:57:27.196Z,21.38
2023-03-27T10:59:53.964Z,21.50
2023-03-27T11:02:20.718Z,21.57
2023-03-27T11:04:47.534Z,21.67
2023-03-27T11:07:16.307Z,21.67
2023-03-27T11:09:43.663Z,21.70
2023-03-27T11:12:10.456Z,21.78
2023-03-27T11:14:37.190Z,21.85
2023-03-27T11:17:04.182Z,22.02
2023-03-27T11:19:31.312Z,20.06
2023-03-27T11:21:58.416Z,18.31
2023-03-27T11:24:25.152Z,18.75
2023-03-27T11:26:51.920Z,19.35
2023-03-27T11:29:20.306Z,19.39
2023-03-27T11:31:47.149Z,19.21
2023-03-27T11:34:14.407Z,19.20
2023-03-27T11:36:55.881Z,19.87
2023-03-27T11:39:22.837Z,20.32
2023-03-27T11:41:49.618Z,20.52
2023-03-27T11:44:16.386Z,20.81
2023-03-27T11:46:43.485Z,21.00
2023-03-27T11:49:10.738Z,21.05
2023-03-27T11:51:37.475Z,21.17
2023-03-27T11:54:05.295Z,21.39
2023-03-27T11:56:32.100Z,21.39
2023-03-27T11:58:58.876Z,21.40
2023-03-27T12:01:26.894Z,21.54
2023-03-27T12:03:53.700Z,21.59
2023-03-27T12:06:20.669Z,21.82
2023-03-27T12:08:48.034Z,21.67
2023-03-27T12:11:14.799Z,21.80
2023-03-27T12:13:42.646Z,21.85
2023-03-27T12:16:09.696Z,21.94
2023-03-27T12:18:36.938Z,21.98
2023-03-27T12:21:04.609Z,21.71
2023-03-27T12:23:31.413Z,19.84
2023-03-27T12:25:58.147Z,18.97
2023-03-27T12:28:24.940Z,19.66
2023-03-27T12:30:51.802Z,19.29
2023-03-27T12:33:18.596Z,19.26
2023-03-27T12:35:46.938Z,19.26
2023-03-27T12:38:14.037Z,19.34
2023-03-27T12:40:40.960Z,19.98
2023-03-27T12:43:07.704Z,20.43
2023-03-27T12:45:38.734Z,20.67
2023-03-27T12:48:09.715Z,20.82
2023-03-27T12:50:36.796Z,20.94
2023-03-27T12:53:04.198Z,21.15
2023-03-27T12:55:31.056Z,21.24
2023-03-27T12:57:57.988Z,21.22
2023-03-27T13:00:25.492Z,21.31
2023-03-27T13:02:52.460Z,21.51
2023-03-27T13:05:26.743Z,21.53
2023-03-27T13:07:54.849Z,21.66
2023-03-27T13:10:21.684Z,21.75
2023-03-27T13:12:48.618Z,21.73
2023-03-27T13:15:15.343Z,21.80
2023-03-27T13:17:42.147Z,21.82
2023-03-27T13:20:09.989Z,21.95
2023-03-27T13:22:37.419Z,21.60
2023-03-27T13:25:04.215Z,19.23
2023-03-27T13:27:31.013Z,17.59
2023-03-27T13:29:57.776Z,18.92
2023-03-27T13:32:24.743Z,19.74
2023-03-27T13:34:51.570Z,20.58
2023-03-27T13:37:20.138Z,20.71
2023-03-27T13:39:47.154Z,21.00
2023-03-27T13:42:13.912Z,21.17
2023-03-27T13:44:40.812Z,21.13
2023-03-27T13:47:09.045Z,21.21
2023-03-27T13:49:37.226Z,21.41
2023-03-27T13:52:04.021Z,21.53
2023-03-27T13:54:30.969Z,21.57
2023-03-27T13:56:57.766Z,21.57
2023-03-27T13:59:27.866Z,21.73
2023-03-27T14:01:55.680Z,21.83
2023-03-27T14:04:22.487Z,21.83
2023-03-27T14:06:49.243Z,21.96
2023-03-27T14:09:16.241Z,21.78
2023-03-27T14:11:43.000Z,19.41
2023-03-27T14:14:09.757Z,17.41
2023-03-27T14:16:36.618Z,18.70
2023-03-27T14:19:03.414Z,19.14
2023-03-27T14:21:38.558Z,19.98
2023-03-27T14:24:06.057Z,20.30
2023-03-27T14:26:33.700Z,20.60
2023-03-27T14:29:00.888Z,20.82
2023-03-27T14:31:28.777Z,20.94
2023-03-27T14:33:56.086Z,21.19
2023-03-27T14:36:22.930Z,21.29
2023-03-27T14:38:49.704Z,21.33
2023-03-27T14:41:16.814Z,21.43
2023-03-27T14:43:43.560Z,21.52
2023-03-27T14:46:11.387Z,21.63
2023-03-27T14:48:38.706Z,21.66
2023-03-27T14:51:05.460Z,21.75
2023-03-27T14:53:36.171Z,21.88
2023-03-27T14:56:04.155Z,21.87
2023-03-27T14:58:30.904Z,21.94
2023-03-27T15:00:57.924Z,21.11
2023-03-27T15:03:26.030Z,19.54
2023-03-27T15:05:53.819Z,18.87
2023-03-27T15:08:22.232Z,19.78
2023-03-27T15:10:49.078Z,19.25
2023-03-27T15:13:15.896Z,19.27
2023-03-27T15:15:42.830Z,19.17
2023-03-27T15:18:10.699Z,18.79
2023-03-27T15:20:37.450Z,18.78
2023-03-27T15:23:04.233Z,18.50
2023-03-27T15:25:31.303Z,18.26
2023-03-27T15:27:58.841Z,18.11
2023-03-27T15:30:25.893Z,17.75
2023-03-27T15:32:53.080Z,17.43
2023-03-27T15:35:19.963Z,17.10
2023-03-27T15:37:46.757Z,17.03
2023-03-27T15:40:13.693Z,17.60
2023-03-27T15:42:40.511Z,18.28
2023-03-27T15:45:07.290Z,18.74
2023-03-27T15:47:34.299Z,19.35
2023-03-27T15:50:01.264Z,19.61
2023-03-27T15:52:28.035Z,19.64
2023-03-27T15:54:54.800Z,19.86
2023-03-27T15:57:21.661Z,20.06
2023-03-27T15:59:51.865Z,20.15
2023-03-27T16:02:20.452Z,20.34
2023-03-27T16:04:48.164Z,20.54
2023-03-27T16:07:14.977Z,20.52
2023-03-27T16:09:41.744Z,20.67
2023-03-27T16:12:08.510Z,20.75
2023-03-27T16:14:35.516Z,20.89
2023-03-27T16:17:02.273Z,20.89
2023-03-27T16:19:29.006Z,20.94
2023-03-27T16:21:55.951Z,21.18
2023-03-27T16:24:22.699Z,21.19
2023-03-27T16:26:49.456Z,21.25
2023-03-27T16:29:16.258Z,21.31
2023-03-27T16:31:43.077Z,21.34
2023-03-27T16:34:09.827Z,21.44
2023-03-27T16:36:37.446Z,21.56
2023-03-27T16:39:04.298Z,21.52
2023-03-27T16:41:31.367Z,21.60
2023-03-27T16:43:58.124Z,21.54
2023-03-27T16:46:24.988Z,21.71
2023-03-27T16:48:51.787Z,21.66
2023-03-27T16:51:19.019Z,21.77
2023-03-27T16:53:45.818Z,21.79
2023-03-27T16:56:12.560Z,21.90
2023-03-27T16:58:39.379Z,21.95
2023-03-27T17:01:06.599Z,22.06
2023-03-27T17:03:33.354Z,19.98
2023-03-27T17:06:00.701Z,18.85
2023-03-27T17:08:30.080Z,18.92
2023-03-27T17:10:56.828Z,19.92
2023-03-27T17:13:23.580Z,20.44
2023-03-27T17:15:51.054Z,20.75
2023-03-27T17:18:17.840Z,20.91
2023-03-27T17:20:44.599Z,21.14
2023-03-27T17:23:11.355Z,21.26
2023-03-27T17:25:38.094Z,21.33
2023-03-27T17:28:04.866Z,21.44
2023-03-27T17:30:40.968Z,21.56
2023-03-27T17:33:11.953Z,21.62
2023-03-27T17:35:39.107Z,21.68
2023-03-27T17:38:06.298Z,21.74
2023-03-27T17:40:33.068Z,21.76
2023-03-27T17:43:00.411Z,21.81
2023-03-27T17:45:27.206Z,21.91
2023-03-27T17:47:54.013Z,21.57
2023-03-27T17:50:21.049Z,19.51
2023-03-27T17:52:47.812Z,17.92
2023-03-27T17:55:14.668Z,19.22
2023-03-27T17:57:41.554Z,20.02
2023-03-27T18:00:09.371Z,20.34
2023-03-27T18:02:36.221Z,20.67
2023-03-27T18:05:03.008Z,20.94
2023-03-27T18:07:30.435Z,21.04
2023-03-27T18:09:57.204Z,21.19
2023-03-27T18:12:23.980Z,21.29
2023-03-27T18:14:50.773Z,21.38
2023-03-27T18:17:20.817Z,21.46
2023-03-27T18:19:47.622Z,21.64
2023-03-27T18:22:14.436Z,21.68
2023-03-27T18:24:41.387Z,21.77
2023-03-27T18:27:08.242Z,21.85
2023-03-27T18:29:35.151Z,21.83
2023-03-27T18:32:02.116Z,21.93
2023-03-27T18:34:28.982Z,21.84
2023-03-27T18:36:56.230Z,19.93
2023-03-27T18:39:23.048Z,18.94
2023-03-27T18:41:51.214Z,19.42
2023-03-27T18:44:18.413Z,19.38
2023-03-27T18:46:45.187Z,19.70
2023-03-27T18:49:23.833Z,20.35
2023-03-27T18:51:51.535Z,20.77
2023-03-27T18:54:18.276Z,20.96
2023-03-27T18:56:45.081Z,21.04
2023-03-27T18:59:11.855Z,21.23
2023-03-27T19:01:38.648Z,21.38
2023-03-27T19:04:05.451Z,21.39
2023-03-27T19:06:32.282Z,21.52
2023-03-27T19:08:59.427Z,21.58
2023-03-27T19:11:26.185Z,21.61
2023-03-27T19:13:52.944Z,21.65
2023-03-27T19:16:19.684Z,21.72
2023-03-27T19:18:46.429Z,21.79
2023-03-27T19:21:13.203Z,21.90
2023-03-27T19:23:39.954Z,21.92
2023-03-27T19:26:06.712Z,22.10
2023-03-27T19:28:33.482Z,20.12
2023-03-27T19:31:00.319Z,18.67
2023-03-27T19:33:27.976Z,19.01
2023-03-27T19:35:54.978Z,19.85
2023-03-27T19:38:21.737Z,20.43
2023-03-27T19:40:48.492Z,20.84
2023-03-27T19:43:17.864Z,20.96
2023-03-27T19:45:44.592Z,21.14
2023-03-27T19:48:12.653Z,21.29
2023-03-27T19:50:39.472Z,21.36
2023-03-27T19:53:09.031Z,21.49
2023-03-27T19:55:36.068Z,21.50
2023-03-27T19:58:02.914Z,21.64
2023-03-27T20:00:31.502Z,21.65
2023-03-27T20:02:59.401Z,21.78
2023-03-27T20:05:27.502Z,21.85
2023-03-27T20:07:54.264Z,21.96
2023-03-27T20:10:21.989Z,20.90
2023-03-27T20:12:48.744Z,19.04
2023-03-27T20:15:15.474Z,18.01
2023-03-27T20:17:42.786Z,19.06
2023-03-27T20:20:12.868Z,19.92
2023-03-27T20:22:50.452Z,20.68
2023-03-27T20:25:21.457Z,20.87
2023-03-27T20:27:48.227Z,21.16
2023-03-27T20:30:15.229Z,21.27
2023-03-27T20:32:42.103Z,21.28
2023-03-27T20:35:20.524Z,21.40
2023-03-27T20:37:50.142Z,21.54
2023-03-27T20:40:17.586Z,21.50
2023-03-27T20:42:47.457Z,21.61
2023-03-27T20:45:19.027Z,21.73
2023-03-27T20:47:47.091Z,21.69
2023-03-27T20:50:13.982Z,21.89
2023-03-27T20:52:41.610Z,21.92
2023-03-27T20:55:08.338Z,22.04
2023-03-27T20:57:36.181Z,21.93
2023-03-27T21:00:03.917Z,19.74
2023-03-27T21:02:30.737Z,18.82
2023-03-27T21:04:57.523Z,19.44
2023-03-27T21:07:24.318Z,19.12
2023-03-27T21:09:52.805Z,19.70
2023-03-27T21:12:19.549Z,20.28
2023-03-27T21:14:46.320Z,20.77
2023-03-27T21:17:13.101Z,20.88
2023-03-27T21:19:39.863Z,21.14
2023-03-27T21:22:06.849Z,21.16
2023-03-27T21:24:33.591Z,21.21
2023-03-27T21:27:00.558Z,21.30
2023-03-27T21:29:27.424Z,21.54
2023-03-27T21:31:54.254Z,21.62
2023-03-27T21:34:22.416Z,21.67
2023-03-27T21:36:49.197Z,21.77
2023-03-27T21:39:16.116Z,21.76
2023-03-27T21:41:42.999Z,21.86
2023-03-27T21:44:09.785Z,21.80
2023-03-27T21:46:36.525Z,21.93
2023-03-27T21:49:03.261Z,22.01
2023-03-27T21:51:30.192Z,20.55
2023-03-27T21:53:56.990Z,19.31
2023-03-27T21:56:23.780Z,19.08
2023-03-27T21:58:50.647Z,19.38
2023-03-27T22:01:17.908Z,19.31
2023-03-27T22:03:44.669Z,19.94
2023-03-27T22:06:13.429Z,20.37
2023-03-27T22:08:40.438Z,20.68
2023-03-27T22:11:07.227Z,20.95
2023-03-27T22:13:34.049Z,21.09
2023-03-27T22:16:01.196Z,21.27
2023-03-27T22:18:28.203Z,21.30
2023-03-27T22:20:55.146Z,21.47
2023-03-27T22:23:21.886Z,21.51
2023-03-27T22:25:48.643Z,21.74
2023-03-27T22:28:15.472Z,21.74
2023-03-27T22:30:42.193Z,21.65
2023-03-27T22:33:08.944Z,21.76
2023-03-27T22:35:35.804Z,21.81
2023-03-27T22:38:02.565Z,21.83
2023-03-27T22:40:29.370Z,21.98
2023-03-27T22:42:56.141Z,21.93
2023-03-27T22:45:22.878Z,20.04
2023-03-27T22:47:49.651Z,18.74
2023-03-27T22:50:16.442Z,19.11
2023-03-27T22:52:43.192Z,19.50
2023-03-27T22:55:10.095Z,19.34
2023-03-27T22:57:37.515Z,20.14
2023-03-27T23:00:04.249Z,20.67
2023-03-27T23:02:31.081Z,20.79
2023-03-27T23:04:58.018Z,21.07
2023-03-27T23:07:24.737Z,21.21
2023-03-27T23:09:51.492Z,21.36
2023-03-27T23:12:18.252Z,21.45
2023-03-27T23:14:45.187Z,21.40
2023-03-27T23:17:11.969Z,21.44
2023-03-27T23:19:38.869Z,21.59
2023-03-27T23:22:05.682Z,21.63
2023-03-27T23:24:32.522Z,21.82
2023-03-27T23:26:59.312Z,21.83
2023-03-27T23:29:26.071Z,21.92
2023-03-27T23:31:52.903Z,21.91
2023-03-27T23:34:19.757Z,21.95
2023-03-27T23:36:46.923Z,22.08
2023-03-27T23:39:13.666Z,21.07
2023-03-27T23:41:40.433Z,19.36
2023-03-27T23:44:07.190Z,18.89
2023-03-27T23:46:34.052Z,19.56
2023-03-27T23:49:00.842Z,19.50
2023-03-27T23:51:27.595Z,20.25
2023-03-27T23:53:54.330Z,20.43
2023-03-27T23:56:21.175Z,20.90
2023-03-27T23:58:47.974Z,20.98
